Pagrindinis puslapis
METAR-TAF:

METAR-TAF

Oro uostai :

Al Bahah, Saudo Arabija

platuma: 20-18N, ilguma: 041-38E, Aukštis: 1652 m

Dabartinis oras

Ataskaita buvo paskelbta 53 minutes, ne 06:00 UTC
Vėjas 5 kt iš Pietų/Pietryčių
Temperatūra 21°C
Drėgmė 21%
Slėgis 1023 hPa
Matomumas 10 km arba daugiau
nėra debesų žemiau 1500 m ir nėra kamuolinių lietaus debesų

METAR: OEBA 260600Z 16005KT CAVOK 21/M02 Q1023 NOSIG

Laikas: 09:53 (06:53 UTC)

Prognozė

Ataskaita buvo paskelbta 7 valandos ir 53 minutes, ne 23:00 UTC
Prognozė galioja nuo 26 metu 00 UTC su 27 metu 06 UTC
Vėjas 3 kt nuo kintamojo kryptimis
Matomumas 10 km arba daugiau
nėra debesų žemiau 1500 m ir nėra kamuolinių lietaus debesų
Tapsmas
nuo 26 metu 06 UTC su 26 metu 08 UTC
Vėjas 12 kt iš Pietryčių
Tapsmas
nuo 26 metu 10 UTC su 26 metu 12 UTC
Vėjas 12 kt iš Rytų
Matomumas 10 km arba daugiau
Išsisklaidę debesys ne aukštis 3000 ft

TAF: OEBA 252300Z 2600/2706 VRB03KT CAVOK BECMG 2606/2608 14012KT BECMG 2610/2612 09012KT 9999 SCT030

Orai ataskaitas ir orų prognozės (METAR, TAF).

turimą stotys yra geltonos ir raudonos taškus žemėlapyje.

Perkelti pele per norėdami pamatyti stoties vardą.

Tada spustelėkite, norėdami matyti oro stebėjimo ir prognozės.

Norėdami pakeisti žemėlapį: spustelėkite ant žalios mygtukų su juodo kryžiaus žemyn,; žalią mygtuką su brūkšneliu, jei norite nutolinti; arba žalių rodyklių gretimoms žemėlapius.


METAR-TAF: